sensor_id;sensor_type;location;lat;lon;timestamp;P1;durP1;ratioP1;P2;durP2;ratioP2
16450;SDS011;12243;42.708;23.310;2024-01-15T00:02:09;158.87;;;76.53;;
16450;SDS011;12243;42.708;23.310;2024-01-15T00:04:36;177.07;;;76.63;;
16450;SDS011;12243;42.708;23.310;2024-01-15T00:07:04;178.23;;;75.43;;
16450;SDS011;12243;42.708;23.310;2024-01-15T00:09:31;175.47;;;75.73;;
16450;SDS011;12243;42.708;23.310;2024-01-15T00:12:00;166.00;;;77.03;;
16450;SDS011;12243;42.708;23.310;2024-01-15T00:14:30;166.00;;;76.03;;
16450;SDS011;12243;42.708;23.310;2024-01-15T00:16:57;167.03;;;73.53;;
16450;SDS011;12243;42.708;23.310;2024-01-15T00:19:25;173.53;;;76.50;;
16450;SDS011;12243;42.708;23.310;2024-01-15T00:21:52;155.87;;;72.83;;
16450;SDS011;12243;42.708;23.310;2024-01-15T00:24:19;156.27;;;70.27;;
16450;SDS011;12243;42.708;23.310;2024-01-15T00:26:46;166.67;;;73.30;;
16450;SDS011;12243;42.708;23.310;2024-01-15T00:29:13;151.50;;;65.90;;
16450;SDS011;12243;42.708;23.310;2024-01-15T00:31:40;147.77;;;64.30;;
16450;SDS011;12243;42.708;23.310;2024-01-15T00:34:06;128.27;;;56.13;;
16450;SDS011;12243;42.708;23.310;2024-01-15T00:36:35;137.90;;;60.40;;
16450;SDS011;12243;42.708;23.310;2024-01-15T00:39:01;110.10;;;53.20;;
16450;SDS011;12243;42.708;23.310;2024-01-15T00:41:30;128.70;;;55.37;;
16450;SDS011;12243;42.708;23.310;2024-01-15T00:43:57;127.10;;;56.97;;
16450;SDS011;12243;42.708;23.310;2024-01-15T00:46:24;119.07;;;51.37;;
16450;SDS011;12243;42.708;23.310;2024-01-15T00:48:50;115.80;;;49.67;;
16450;SDS011;12243;42.708;23.310;2024-01-15T00:51:17;125.87;;;52.70;;
16450;SDS011;12243;42.708;23.310;2024-01-15T00:53:46;123.17;;;54.17;;
16450;SDS011;12243;42.708;23.310;2024-01-15T00:56:13;113.80;;;51.63;;
16450;SDS011;12243;42.708;23.310;2024-01-15T00:58:40;117.40;;;52.73;;
16450;SDS011;12243;42.708;23.310;2024-01-15T01:01:07;119.33;;;55.30;;
16450;SDS011;12243;42.708;23.310;2024-01-15T01:03:33;117.90;;;54.47;;
16450;SDS011;12243;42.708;23.310;2024-01-15T01:06:00;136.40;;;55.73;;
16450;SDS011;12243;42.708;23.310;2024-01-15T01:08:28;117.27;;;52.73;;
16450;SDS011;12243;42.708;23.310;2024-01-15T01:10:56;136.67;;;59.00;;
16450;SDS011;12243;42.708;23.310;2024-01-15T01:13:23;129.73;;;56.43;;
16450;SDS011;12243;42.708;23.310;2024-01-15T01:15:50;129.93;;;57.87;;
16450;SDS011;12243;42.708;23.310;2024-01-15T01:18:16;129.90;;;57.60;;
16450;SDS011;12243;42.708;23.310;2024-01-15T01:20:43;131.40;;;58.10;;
16450;SDS011;12243;42.708;23.310;2024-01-15T01:23:10;128.17;;;59.03;;
16450;SDS011;12243;42.708;23.310;2024-01-15T01:25:37;125.93;;;53.97;;
16450;SDS011;12243;42.708;23.310;2024-01-15T01:28:05;139.07;;;61.67;;
16450;SDS011;12243;42.708;23.310;2024-01-15T01:30:32;118.67;;;53.23;;
16450;SDS011;12243;42.708;23.310;2024-01-15T01:32:59;112.33;;;49.40;;
16450;SDS011;12243;42.708;23.310;2024-01-15T01:35:25;124.27;;;51.50;;
16450;SDS011;12243;42.708;23.310;2024-01-15T01:37:52;113.67;;;50.90;;
16450;SDS011;12243;42.708;23.310;2024-01-15T01:40:19;115.97;;;51.13;;
16450;SDS011;12243;42.708;23.310;2024-01-15T01:42:47;120.27;;;54.07;;
16450;SDS011;12243;42.708;23.310;2024-01-15T01:45:15;113.77;;;51.47;;
16450;SDS011;12243;42.708;23.310;2024-01-15T01:47:45;117.63;;;54.93;;
16450;SDS011;12243;42.708;23.310;2024-01-15T01:50:12;108.83;;;51.40;;
16450;SDS011;12243;42.708;23.310;2024-01-15T01:52:40;127.77;;;55.50;;
16450;SDS011;12243;42.708;23.310;2024-01-15T01:55:07;117.60;;;54.23;;
16450;SDS011;12243;42.708;23.310;2024-01-15T01:57:37;126.43;;;56.00;;
16450;SDS011;12243;42.708;23.310;2024-01-15T02:00:05;127.07;;;56.70;;
16450;SDS011;12243;42.708;23.310;2024-01-15T02:02:40;126.80;;;56.43;;
16450;SDS011;12243;42.708;23.310;2024-01-15T02:05:08;126.30;;;56.60;;
16450;SDS011;12243;42.708;23.310;2024-01-15T02:07:35;129.63;;;55.70;;
16450;SDS011;12243;42.708;23.310;2024-01-15T02:10:03;132.60;;;58.77;;
16450;SDS011;12243;42.708;23.310;2024-01-15T02:12:31;134.77;;;60.33;;
16450;SDS011;12243;42.708;23.310;2024-01-15T02:14:58;132.63;;;59.33;;
16450;SDS011;12243;42.708;23.310;2024-01-15T02:17:28;128.53;;;59.43;;
16450;SDS011;12243;42.708;23.310;2024-01-15T02:19:56;148.67;;;69.33;;
16450;SDS011;12243;42.708;23.310;2024-01-15T02:22:23;136.77;;;64.97;;
16450;SDS011;12243;42.708;23.310;2024-01-15T02:24:51;140.60;;;64.10;;
16450;SDS011;12243;42.708;23.310;2024-01-15T02:27:18;137.33;;;62.00;;
16450;SDS011;12243;42.708;23.310;2024-01-15T02:29:45;146.70;;;63.70;;
16450;SDS011;12243;42.708;23.310;2024-01-15T02:32:13;131.27;;;61.43;;
16450;SDS011;12243;42.708;23.310;2024-01-15T02:34:40;134.27;;;61.23;;
16450;SDS011;12243;42.708;23.310;2024-01-15T02:37:07;142.27;;;62.07;;
16450;SDS011;12243;42.708;23.310;2024-01-15T02:39:35;136.43;;;62.63;;
16450;SDS011;12243;42.708;23.310;2024-01-15T02:42:04;126.93;;;59.73;;
16450;SDS011;12243;42.708;23.310;2024-01-15T02:44:32;135.17;;;59.10;;
16450;SDS011;12243;42.708;23.310;2024-01-15T02:46:59;126.57;;;55.93;;
16450;SDS011;12243;42.708;23.310;2024-01-15T02:49:26;120.37;;;55.73;;
16450;SDS011;12243;42.708;23.310;2024-01-15T02:51:53;132.77;;;56.07;;
16450;SDS011;12243;42.708;23.310;2024-01-15T02:54:21;137.93;;;58.73;;
16450;SDS011;12243;42.708;23.310;2024-01-15T02:56:48;138.13;;;58.70;;
16450;SDS011;12243;42.708;23.310;2024-01-15T02:59:16;126.37;;;57.87;;
16450;SDS011;12243;42.708;23.310;2024-01-15T03:01:43;120.07;;;55.10;;
16450;SDS011;12243;42.708;23.310;2024-01-15T03:04:10;135.30;;;56.37;;
16450;SDS011;12243;42.708;23.310;2024-01-15T03:06:37;129.20;;;55.43;;
16450;SDS011;12243;42.708;23.310;2024-01-15T03:09:06;152.27;;;65.07;;
16450;SDS011;12243;42.708;23.310;2024-01-15T03:11:36;166.50;;;70.87;;
16450;SDS011;12243;42.708;23.310;2024-01-15T03:14:05;156.77;;;68.07;;
16450;SDS011;12243;42.708;23.310;2024-01-15T03:16:33;141.97;;;61.63;;
16450;SDS011;12243;42.708;23.310;2024-01-15T03:19:00;136.83;;;59.07;;
16450;SDS011;12243;42.708;23.310;2024-01-15T03:21:27;120.87;;;53.47;;
16450;SDS011;12243;42.708;23.310;2024-01-15T03:23:54;115.30;;;47.53;;
16450;SDS011;12243;42.708;23.310;2024-01-15T03:26:21;113.03;;;48.57;;
16450;SDS011;12243;42.708;23.310;2024-01-15T03:28:48;104.27;;;46.73;;
16450;SDS011;12243;42.708;23.310;2024-01-15T03:31:15;104.23;;;48.40;;
16450;SDS011;12243;42.708;23.310;2024-01-15T03:33:43;117.23;;;51.50;;
16450;SDS011;12243;42.708;23.310;2024-01-15T03:36:10;107.47;;;48.30;;
16450;SDS011;12243;42.708;23.310;2024-01-15T03:38:39;103.43;;;41.03;;
16450;SDS011;12243;42.708;23.310;2024-01-15T03:41:08;80.27;;;37.03;;
16450;SDS011;12243;42.708;23.310;2024-01-15T03:43:34;72.73;;;35.37;;
16450;SDS011;12243;42.708;23.310;2024-01-15T03:46:01;72.23;;;33.57;;
16450;SDS011;12243;42.708;23.310;2024-01-15T03:48:29;80.67;;;37.97;;
16450;SDS011;12243;42.708;23.310;2024-01-15T03:50:57;79.67;;;36.73;;
16450;SDS011;12243;42.708;23.310;2024-01-15T03:53:24;74.17;;;35.67;;
16450;SDS011;12243;42.708;23.310;2024-01-15T03:55:51;75.83;;;33.47;;
16450;SDS011;12243;42.708;23.310;2024-01-15T03:58:18;73.13;;;31.00;;
16450;SDS011;12243;42.708;23.310;2024-01-15T04:00:45;71.30;;;31.00;;
16450;SDS011;12243;42.708;23.310;2024-01-15T04:03:12;68.53;;;30.57;;
16450;SDS011;12243;42.708;23.310;2024-01-15T04:05:39;66.73;;;30.00;;
16450;SDS011;12243;42.708;23.310;2024-01-15T04:08:07;59.33;;;27.80;;
16450;SDS011;12243;42.708;23.310;2024-01-15T04:10:34;59.57;;;28.30;;
16450;SDS011;12243;42.708;23.310;2024-01-15T04:13:01;55.33;;;27.33;;
16450;SDS011;12243;42.708;23.310;2024-01-15T04:15:28;54.00;;;25.93;;
16450;SDS011;12243;42.708;23.310;2024-01-15T04:17:55;52.20;;;26.27;;
16450;SDS011;12243;42.708;23.310;2024-01-15T04:20:22;61.07;;;26.83;;
16450;SDS011;12243;42.708;23.310;2024-01-15T04:22:49;64.17;;;29.57;;
16450;SDS011;12243;42.708;23.310;2024-01-15T04:25:17;66.17;;;30.40;;
16450;SDS011;12243;42.708;23.310;2024-01-15T04:27:44;64.37;;;33.73;;
16450;SDS011;12243;42.708;23.310;2024-01-15T04:30:11;74.73;;;34.80;;
16450;SDS011;12243;42.708;23.310;2024-01-15T04:32:38;67.00;;;33.93;;
16450;SDS011;12243;42.708;23.310;2024-01-15T04:35:05;77.10;;;37.10;;
16450;SDS011;12243;42.708;23.310;2024-01-15T04:37:32;70.70;;;34.67;;
16450;SDS011;12243;42.708;23.310;2024-01-15T04:39:59;73.47;;;35.33;;
16450;SDS011;12243;42.708;23.310;2024-01-15T04:42:27;78.50;;;36.93;;
16450;SDS011;12243;42.708;23.310;2024-01-15T04:44:54;86.40;;;39.37;;
16450;SDS011;12243;42.708;23.310;2024-01-15T04:47:20;83.63;;;38.37;;
16450;SDS011;12243;42.708;23.310;2024-01-15T04:49:47;97.33;;;42.17;;
16450;SDS011;12243;42.708;23.310;2024-01-15T04:52:14;102.27;;;42.30;;
16450;SDS011;12243;42.708;23.310;2024-01-15T04:54:41;84.70;;;40.93;;
16450;SDS011;12243;42.708;23.310;2024-01-15T04:57:08;90.20;;;41.03;;
16450;SDS011;12243;42.708;23.310;2024-01-15T04:59:36;92.70;;;39.83;;
16450;SDS011;12243;42.708;23.310;2024-01-15T05:02:03;98.33;;;42.33;;
16450;SDS011;12243;42.708;23.310;2024-01-15T05:04:30;92.67;;;40.27;;
16450;SDS011;12243;42.708;23.310;2024-01-15T05:06:58;74.97;;;38.37;;
16450;SDS011;12243;42.708;23.310;2024-01-15T05:09:24;77.63;;;36.87;;
16450;SDS011;12243;42.708;23.310;2024-01-15T05:11:51;73.87;;;34.17;;
16450;SDS011;12243;42.708;23.310;2024-01-15T05:14:18;80.03;;;35.60;;
16450;SDS011;12243;42.708;23.310;2024-01-15T05:16:47;85.27;;;35.60;;
16450;SDS011;12243;42.708;23.310;2024-01-15T05:19:15;75.37;;;35.47;;
16450;SDS011;12243;42.708;23.310;2024-01-15T05:21:42;94.43;;;39.47;;
16450;SDS011;12243;42.708;23.310;2024-01-15T05:24:09;83.20;;;39.23;;
16450;SDS011;12243;42.708;23.310;2024-01-15T05:26:36;74.33;;;38.13;;
16450;SDS011;12243;42.708;23.310;2024-01-15T05:29:02;87.70;;;39.17;;
16450;SDS011;12243;42.708;23.310;2024-01-15T05:31:30;84.23;;;40.43;;
16450;SDS011;12243;42.708;23.310;2024-01-15T05:33:58;89.67;;;42.03;;
16450;SDS011;12243;42.708;23.310;2024-01-15T05:36:25;100.77;;;42.93;;
16450;SDS011;12243;42.708;23.310;2024-01-15T05:38:51;85.40;;;42.37;;
16450;SDS011;12243;42.708;23.310;2024-01-15T05:41:18;94.70;;;43.37;;
16450;SDS011;12243;42.708;23.310;2024-01-15T05:43:45;95.83;;;42.03;;
16450;SDS011;12243;42.708;23.310;2024-01-15T05:46:12;99.93;;;43.07;;
16450;SDS011;12243;42.708;23.310;2024-01-15T05:48:40;87.07;;;41.77;;
16450;SDS011;12243;42.708;23.310;2024-01-15T05:51:09;91.83;;;43.57;;
16450;SDS011;12243;42.708;23.310;2024-01-15T05:53:36;85.87;;;41.77;;
16450;SDS011;12243;42.708;23.310;2024-01-15T05:56:05;84.47;;;41.90;;
16450;SDS011;12243;42.708;23.310;2024-01-15T05:58:32;84.33;;;41.60;;
16450;SDS011;12243;42.708;23.310;2024-01-15T06:00:59;85.70;;;41.67;;
16450;SDS011;12243;42.708;23.310;2024-01-15T06:03:26;89.20;;;41.97;;
16450;SDS011;12243;42.708;23.310;2024-01-15T06:05:53;86.63;;;40.53;;
16450;SDS011;12243;42.708;23.310;2024-01-15T06:08:21;94.97;;;44.23;;
16450;SDS011;12243;42.708;23.310;2024-01-15T06:10:48;109.47;;;45.43;;
16450;SDS011;12243;42.708;23.310;2024-01-15T06:13:15;95.20;;;42.60;;
16450;SDS011;12243;42.708;23.310;2024-01-15T06:15:42;91.40;;;42.47;;
16450;SDS011;12243;42.708;23.310;2024-01-15T06:18:08;98.40;;;45.20;;
16450;SDS011;12243;42.708;23.310;2024-01-15T06:20:35;98.47;;;44.70;;
16450;SDS011;12243;42.708;23.310;2024-01-15T06:23:03;95.77;;;43.60;;
16450;SDS011;12243;42.708;23.310;2024-01-15T06:25:31;104.07;;;47.17;;
16450;SDS011;12243;42.708;23.310;2024-01-15T06:27:58;97.73;;;44.63;;
16450;SDS011;12243;42.708;23.310;2024-01-15T06:30:25;112.70;;;47.53;;
16450;SDS011;12243;42.708;23.310;2024-01-15T06:32:52;101.50;;;45.50;;
16450;SDS011;12243;42.708;23.310;2024-01-15T06:35:19;98.70;;;43.93;;
16450;SDS011;12243;42.708;23.310;2024-01-15T06:37:46;91.03;;;44.10;;
16450;SDS011;12243;42.708;23.310;2024-01-15T06:40:13;96.30;;;45.83;;
16450;SDS011;12243;42.708;23.310;2024-01-15T06:42:41;98.97;;;45.73;;
16450;SDS011;12243;42.708;23.310;2024-01-15T06:45:08;104.47;;;46.40;;
16450;SDS011;12243;42.708;23.310;2024-01-15T06:47:35;97.27;;;46.73;;
16450;SDS011;12243;42.708;23.310;2024-01-15T06:50:02;98.90;;;44.80;;
16450;SDS011;12243;42.708;23.310;2024-01-15T06:52:30;97.00;;;45.13;;
16450;SDS011;12243;42.708;23.310;2024-01-15T06:54:57;94.27;;;45.27;;
16450;SDS011;12243;42.708;23.310;2024-01-15T06:57:23;98.73;;;45.17;;
16450;SDS011;12243;42.708;23.310;2024-01-15T06:59:52;103.37;;;48.10;;
16450;SDS011;12243;42.708;23.310;2024-01-15T07:02:18;102.83;;;48.63;;
16450;SDS011;12243;42.708;23.310;2024-01-15T07:04:46;104.37;;;48.60;;
16450;SDS011;12243;42.708;23.310;2024-01-15T07:07:13;94.77;;;46.60;;
16450;SDS011;12243;42.708;23.310;2024-01-15T07:09:40;105.23;;;48.10;;
16450;SDS011;12243;42.708;23.310;2024-01-15T07:12:07;98.23;;;45.73;;
16450;SDS011;12243;42.708;23.310;2024-01-15T07:14:34;104.40;;;47.30;;
16450;SDS011;12243;42.708;23.310;2024-01-15T07:17:02;99.60;;;48.37;;
16450;SDS011;12243;42.708;23.310;2024-01-15T07:19:29;101.10;;;49.00;;
16450;SDS011;12243;42.708;23.310;2024-01-15T07:21:56;106.00;;;50.27;;
16450;SDS011;12243;42.708;23.310;2024-01-15T07:24:23;97.30;;;49.10;;
16450;SDS011;12243;42.708;23.310;2024-01-15T07:26:50;107.93;;;48.90;;
16450;SDS011;12243;42.708;23.310;2024-01-15T07:29:16;95.17;;;46.17;;
16450;SDS011;12243;42.708;23.310;2024-01-15T07:31:47;94.80;;;47.27;;
16450;SDS011;12243;42.708;23.310;2024-01-15T07:34:16;96.27;;;48.13;;
16450;SDS011;12243;42.708;23.310;2024-01-15T07:36:43;98.80;;;44.97;;
16450;SDS011;12243;42.708;23.310;2024-01-15T07:39:10;97.70;;;46.27;;
16450;SDS011;12243;42.708;23.310;2024-01-15T07:41:37;90.10;;;45.10;;
16450;SDS011;12243;42.708;23.310;2024-01-15T07:44:06;97.53;;;46.20;;
16450;SDS011;12243;42.708;23.310;2024-01-15T07:46:32;97.17;;;49.60;;
16450;SDS011;12243;42.708;23.310;2024-01-15T07:49:00;94.87;;;45.57;;
16450;SDS011;12243;42.708;23.310;2024-01-15T07:51:30;102.80;;;47.67;;
16450;SDS011;12243;42.708;23.310;2024-01-15T07:53:57;117.23;;;52.73;;
16450;SDS011;12243;42.708;23.310;2024-01-15T07:56:24;116.83;;;53.60;;
16450;SDS011;12243;42.708;23.310;2024-01-15T07:58:52;118.53;;;58.93;;
16450;SDS011;12243;42.708;23.310;2024-01-15T08:01:19;123.03;;;57.53;;
16450;SDS011;12243;42.708;23.310;2024-01-15T08:03:46;120.73;;;57.47;;
16450;SDS011;12243;42.708;23.310;2024-01-15T08:06:13;118.90;;;54.53;;
16450;SDS011;12243;42.708;23.310;2024-01-15T08:08:42;112.30;;;51.73;;
16450;SDS011;12243;42.708;23.310;2024-01-15T08:11:09;111.30;;;55.33;;
16450;SDS011;12243;42.708;23.310;2024-01-15T08:13:36;116.43;;;57.43;;
16450;SDS011;12243;42.708;23.310;2024-01-15T08:16:03;129.00;;;61.43;;
16450;SDS011;12243;42.708;23.310;2024-01-15T08:18:31;116.27;;;58.27;;
16450;SDS011;12243;42.708;23.310;2024-01-15T08:20:58;118.33;;;57.97;;
16450;SDS011;12243;42.708;23.310;2024-01-15T08:23:27;113.73;;;57.20;;
16450;SDS011;12243;42.708;23.310;2024-01-15T08:25:57;121.07;;;56.50;;
16450;SDS011;12243;42.708;23.310;2024-01-15T08:28:25;121.47;;;56.87;;
16450;SDS011;12243;42.708;23.310;2024-01-15T08:30:52;118.47;;;58.07;;
16450;SDS011;12243;42.708;23.310;2024-01-15T08:33:19;111.67;;;56.73;;
16450;SDS011;12243;42.708;23.310;2024-01-15T08:35:46;129.00;;;59.33;;
16450;SDS011;12243;42.708;23.310;2024-01-15T08:38:13;124.53;;;60.50;;
16450;SDS011;12243;42.708;23.310;2024-01-15T08:40:40;120.60;;;59.60;;
16450;SDS011;12243;42.708;23.310;2024-01-15T08:43:08;118.67;;;57.97;;
16450;SDS011;12243;42.708;23.310;2024-01-15T08:45:35;170.00;;;82.07;;
16450;SDS011;12243;42.708;23.310;2024-01-15T08:48:02;155.17;;;74.77;;
16450;SDS011;12243;42.708;23.310;2024-01-15T08:50:29;170.47;;;80.70;;
16450;SDS011;12243;42.708;23.310;2024-01-15T08:52:57;255.60;;;119.27;;
16450;SDS011;12243;42.708;23.310;2024-01-15T08:55:24;131.93;;;62.63;;
16450;SDS011;12243;42.708;23.310;2024-01-15T08:57:51;139.83;;;70.27;;
16450;SDS011;12243;42.708;23.310;2024-01-15T09:00:19;139.97;;;71.80;;
16450;SDS011;12243;42.708;23.310;2024-01-15T09:02:46;141.77;;;64.90;;
16450;SDS011;12243;42.708;23.310;2024-01-15T09:05:13;117.87;;;60.50;;
16450;SDS011;12243;42.708;23.310;2024-01-15T09:07:40;120.57;;;59.17;;
16450;SDS011;12243;42.708;23.310;2024-01-15T09:10:07;116.47;;;59.00;;
16450;SDS011;12243;42.708;23.310;2024-01-15T09:12:34;131.80;;;64.53;;
16450;SDS011;12243;42.708;23.310;2024-01-15T09:15:01;117.93;;;61.43;;
16450;SDS011;12243;42.708;23.310;2024-01-15T09:17:31;121.67;;;61.83;;
16450;SDS011;12243;42.708;23.310;2024-01-15T09:19:58;118.87;;;56.73;;
16450;SDS011;12243;42.708;23.310;2024-01-15T09:22:26;162.10;;;84.10;;
16450;SDS011;12243;42.708;23.310;2024-01-15T09:24:53;143.33;;;72.47;;
16450;SDS011;12243;42.708;23.310;2024-01-15T09:27:20;157.43;;;79.00;;
16450;SDS011;12243;42.708;23.310;2024-01-15T09:29:47;130.47;;;65.00;;
16450;SDS011;12243;42.708;23.310;2024-01-15T09:32:13;165.93;;;85.13;;
16450;SDS011;12243;42.708;23.310;2024-01-15T09:34:42;130.93;;;63.60;;
16450;SDS011;12243;42.708;23.310;2024-01-15T09:37:09;162.27;;;79.60;;
16450;SDS011;12243;42.708;23.310;2024-01-15T09:39:36;133.27;;;65.97;;
16450;SDS011;12243;42.708;23.310;2024-01-15T09:42:03;134.67;;;66.57;;
16450;SDS011;12243;42.708;23.310;2024-01-15T09:44:31;213.83;;;96.97;;
16450;SDS011;12243;42.708;23.310;2024-01-15T09:46:58;121.97;;;58.97;;
16450;SDS011;12243;42.708;23.310;2024-01-15T09:49:25;173.87;;;84.23;;
16450;SDS011;12243;42.708;23.310;2024-01-15T09:51:53;115.57;;;59.00;;
16450;SDS011;12243;42.708;23.310;2024-01-15T09:54:22;120.00;;;58.67;;
16450;SDS011;12243;42.708;23.310;2024-01-15T09:56:49;137.20;;;65.67;;
16450;SDS011;12243;42.708;23.310;2024-01-15T09:59:17;121.13;;;59.17;;
16450;SDS011;12243;42.708;23.310;2024-01-15T10:01:45;129.23;;;59.47;;
16450;SDS011;12243;42.708;23.310;2024-01-15T10:04:13;114.50;;;54.27;;
16450;SDS011;12243;42.708;23.310;2024-01-15T10:06:40;101.07;;;54.40;;
16450;SDS011;12243;42.708;23.310;2024-01-15T10:09:14;89.20;;;47.10;;
16450;SDS011;12243;42.708;23.310;2024-01-15T10:11:41;88.07;;;44.07;;
16450;SDS011;12243;42.708;23.310;2024-01-15T10:14:08;79.03;;;39.07;;
16450;SDS011;12243;42.708;23.310;2024-01-15T10:16:37;86.80;;;43.63;;
16450;SDS011;12243;42.708;23.310;2024-01-15T10:19:04;85.30;;;41.93;;
16450;SDS011;12243;42.708;23.310;2024-01-15T10:21:31;84.50;;;40.97;;
16450;SDS011;12243;42.708;23.310;2024-01-15T10:24:00;81.37;;;41.23;;
16450;SDS011;12243;42.708;23.310;2024-01-15T10:26:29;74.37;;;39.63;;
16450;SDS011;12243;42.708;23.310;2024-01-15T10:28:56;67.00;;;37.83;;
16450;SDS011;12243;42.708;23.310;2024-01-15T10:31:25;83.63;;;47.13;;
16450;SDS011;12243;42.708;23.310;2024-01-15T10:33:52;61.23;;;34.60;;
16450;SDS011;12243;42.708;23.310;2024-01-15T10:36:19;106.23;;;52.37;;
16450;SDS011;12243;42.708;23.310;2024-01-15T10:38:46;77.93;;;41.60;;
16450;SDS011;12243;42.708;23.310;2024-01-15T10:41:13;88.37;;;46.80;;
16450;SDS011;12243;42.708;23.310;2024-01-15T10:43:42;78.70;;;41.30;;
16450;SDS011;12243;42.708;23.310;2024-01-15T10:46:10;68.77;;;37.43;;
16450;SDS011;12243;42.708;23.310;2024-01-15T10:48:38;107.70;;;54.57;;
16450;SDS011;12243;42.708;23.310;2024-01-15T10:51:06;71.97;;;37.63;;
16450;SDS011;12243;42.708;23.310;2024-01-15T10:53:36;67.13;;;38.47;;
16450;SDS011;12243;42.708;23.310;2024-01-15T10:56:05;72.00;;;37.03;;
16450;SDS011;12243;42.708;23.310;2024-01-15T10:58:33;66.63;;;36.20;;
16450;SDS011;12243;42.708;23.310;2024-01-15T11:01:02;83.10;;;44.17;;
16450;SDS011;12243;42.708;23.310;2024-01-15T11:03:31;78.57;;;43.33;;
16450;SDS011;12243;42.708;23.310;2024-01-15T11:06:15;61.06;;;35.31;;
16450;SDS011;12243;42.708;23.310;2024-01-15T11:08:43;66.73;;;35.77;;
16450;SDS011;12243;42.708;23.310;2024-01-15T11:11:10;80.53;;;41.23;;
16450;SDS011;12243;42.708;23.310;2024-01-15T11:13:40;61.20;;;35.80;;
16450;SDS011;12243;42.708;23.310;2024-01-15T11:16:11;56.37;;;33.63;;
16450;SDS011;12243;42.708;23.310;2024-01-15T11:18:39;65.33;;;35.53;;
16450;SDS011;12243;42.708;23.310;2024-01-15T11:23:53;66.40;;;34.60;;
16450;SDS011;12243;42.708;23.310;2024-01-15T11:26:35;66.10;;;37.67;;
16450;SDS011;12243;42.708;23.310;2024-01-15T11:29:03;57.93;;;32.40;;
16450;SDS011;12243;42.708;23.310;2024-01-15T11:37:18;53.20;;;31.40;;
16450;SDS011;12243;42.708;23.310;2024-01-15T11:39:46;52.50;;;29.53;;
16450;SDS011;12243;42.708;23.310;2024-01-15T11:42:13;49.43;;;29.03;;
16450;SDS011;12243;42.708;23.310;2024-01-15T11:44:41;56.40;;;28.27;;
16450;SDS011;12243;42.708;23.310;2024-01-15T11:47:10;58.43;;;30.13;;
16450;SDS011;12243;42.708;23.310;2024-01-15T11:52:31;54.37;;;30.23;;
16450;SDS011;12243;42.708;23.310;2024-01-15T11:55:10;50.93;;;27.90;;
16450;SDS011;12243;42.708;23.310;2024-01-15T11:57:41;52.43;;;27.73;;
16450;SDS011;12243;42.708;23.310;2024-01-15T12:00:12;54.67;;;27.90;;
16450;SDS011;12243;42.708;23.310;2024-01-15T12:02:41;48.50;;;27.83;;
16450;SDS011;12243;42.708;23.310;2024-01-15T12:05:09;44.73;;;27.47;;
16450;SDS011;12243;42.708;23.310;2024-01-15T12:07:38;54.73;;;28.00;;
16450;SDS011;12243;42.708;23.310;2024-01-15T12:10:08;47.50;;;25.17;;
16450;SDS011;12243;42.708;23.310;2024-01-15T12:12:43;51.70;;;28.00;;
16450;SDS011;12243;42.708;23.310;2024-01-15T12:15:20;50.80;;;25.57;;
16450;SDS011;12243;42.708;23.310;2024-01-15T12:17:49;44.13;;;24.73;;
16450;SDS011;12243;42.708;23.310;2024-01-15T12:20:16;47.30;;;22.90;;
16450;SDS011;12243;42.708;23.310;2024-01-15T12:22:44;50.80;;;27.50;;
16450;SDS011;12243;42.708;23.310;2024-01-15T12:25:12;43.23;;;22.93;;
16450;SDS011;12243;42.708;23.310;2024-01-15T12:27:39;73.50;;;40.97;;
16450;SDS011;12243;42.708;23.310;2024-01-15T12:30:06;91.37;;;46.07;;
16450;SDS011;12243;42.708;23.310;2024-01-15T12:32:36;42.93;;;22.97;;
16450;SDS011;12243;42.708;23.310;2024-01-15T12:35:05;39.37;;;21.33;;
16450;SDS011;12243;42.708;23.310;2024-01-15T12:37:34;36.90;;;20.57;;
16450;SDS011;12243;42.708;23.310;2024-01-15T12:40:02;34.37;;;20.80;;
16450;SDS011;12243;42.708;23.310;2024-01-15T12:42:29;40.37;;;21.40;;
16450;SDS011;12243;42.708;23.310;2024-01-15T12:44:56;41.83;;;22.13;;
16450;SDS011;12243;42.708;23.310;2024-01-15T12:47:23;68.47;;;29.93;;
16450;SDS011;12243;42.708;23.310;2024-01-15T12:49:51;42.20;;;25.40;;
16450;SDS011;12243;42.708;23.310;2024-01-15T12:52:21;40.27;;;22.80;;
16450;SDS011;12243;42.708;23.310;2024-01-15T12:54:48;39.53;;;22.17;;
16450;SDS011;12243;42.708;23.310;2024-01-15T12:57:15;39.93;;;23.67;;
16450;SDS011;12243;42.708;23.310;2024-01-15T12:59:42;46.53;;;24.27;;
16450;SDS011;12243;42.708;23.310;2024-01-15T13:02:09;47.10;;;24.43;;
16450;SDS011;12243;42.708;23.310;2024-01-15T13:04:37;47.30;;;26.07;;
16450;SDS011;12243;42.708;23.310;2024-01-15T13:07:04;48.50;;;26.37;;
16450;SDS011;12243;42.708;23.310;2024-01-15T13:09:32;47.70;;;27.60;;
16450;SDS011;12243;42.708;23.310;2024-01-15T13:12:00;58.90;;;29.87;;
16450;SDS011;12243;42.708;23.310;2024-01-15T13:14:27;45.70;;;27.47;;
16450;SDS011;12243;42.708;23.310;2024-01-15T13:16:54;38.40;;;21.87;;
16450;SDS011;12243;42.708;23.310;2024-01-15T13:19:21;43.20;;;23.10;;
16450;SDS011;12243;42.708;23.310;2024-01-15T13:21:48;44.07;;;24.63;;
16450;SDS011;12243;42.708;23.310;2024-01-15T13:24:16;37.07;;;21.30;;
16450;SDS011;12243;42.708;23.310;2024-01-15T13:26:44;39.03;;;22.63;;
16450;SDS011;12243;42.708;23.310;2024-01-15T13:29:12;46.30;;;23.93;;
16450;SDS011;12243;42.708;23.310;2024-01-15T13:31:39;40.93;;;24.27;;
16450;SDS011;12243;42.708;23.310;2024-01-15T13:34:06;40.50;;;22.50;;
16450;SDS011;12243;42.708;23.310;2024-01-15T13:36:34;36.43;;;22.00;;
16450;SDS011;12243;42.708;23.310;2024-01-15T13:39:04;44.57;;;25.47;;
16450;SDS011;12243;42.708;23.310;2024-01-15T13:41:34;42.27;;;23.97;;
16450;SDS011;12243;42.708;23.310;2024-01-15T13:44:03;40.63;;;23.60;;
16450;SDS011;12243;42.708;23.310;2024-01-15T13:46:30;41.27;;;22.53;;
16450;SDS011;12243;42.708;23.310;2024-01-15T13:48:57;43.60;;;22.40;;
16450;SDS011;12243;42.708;23.310;2024-01-15T13:51:24;38.53;;;21.93;;
16450;SDS011;12243;42.708;23.310;2024-01-15T13:53:51;44.50;;;23.90;;
16450;SDS011;12243;42.708;23.310;2024-01-15T13:56:19;47.37;;;23.57;;
16450;SDS011;12243;42.708;23.310;2024-01-15T13:58:46;39.07;;;21.87;;
16450;SDS011;12243;42.708;23.310;2024-01-15T14:01:16;45.17;;;24.63;;
16450;SDS011;12243;42.708;23.310;2024-01-15T14:03:43;46.70;;;22.83;;
16450;SDS011;12243;42.708;23.310;2024-01-15T14:06:10;39.33;;;23.23;;
16450;SDS011;12243;42.708;23.310;2024-01-15T14:08:39;93.03;;;37.53;;
16450;SDS011;12243;42.708;23.310;2024-01-15T14:11:06;62.47;;;29.40;;
16450;SDS011;12243;42.708;23.310;2024-01-15T14:13:36;54.13;;;27.07;;
16450;SDS011;12243;42.708;23.310;2024-01-15T14:16:06;49.60;;;24.30;;
16450;SDS011;12243;42.708;23.310;2024-01-15T14:18:39;43.17;;;24.03;;